Lubbock, TX

10:59 AM CDT on August 29, 2014 (GMT -0500)
Winston | Change Station
CLOSE
Current Station
Airport
Location: Snyder,
Elevation: 2431 ft
Nearby Weather Stations

Elev 2431 ft 32.69 °N, 100.95 °W | Updated 24 minutes ago

Overcast
Overcast
74 °F
Feels Like 74 °F
N
0
Wind Variable Wind from North

Today
High -- | Low -- °F
--% Chance of Precip.
Yesterday
High -- | Low -- °F
Precip. -- in
7:19 AM 8:16 PM
Waxing Crescent, 15% visible
Pressure 30.01 in
Visibility 10.0 miles
Clouds Scattered Clouds 1000 ft
Overcast 1900 ft
Dew Point 69 °F
Humidity 86%
Rainfall 0.00 in
Snow Depth Not available.
UV 2 out of 12
Pollen 8.70 out of 12
Air Quality Not available.
Flu Activity Not available.
METAR KSNK 291535Z AUTO 00000KT 10SM SCT010 OVC019 23/21 A3001 RMK AO2 T02310206

More Conditions Fewer Conditions

Pressure 30.01 in
Visibility 10.0 miles
Clouds Scattered Clouds 1000 ft
Overcast 1900 ft
Dew Point 69 °F
Humidity 86%
Rainfall 0.00 in
Snow Depth Not available.
UV 2 out of 12
Pollen 8.70 out of 12
Air Quality Not available.
Flu Activity Not available.
METAR KSNK 291535Z AUTO 00000KT 10SM SCT010 OVC019 23/21 A3001 RMK AO2 T02310206

More Conditions Fewer Conditions

Nowcast | as of 9:06 am CDT on August 29, 2014

This morning...areas of low clouds and patchy fog persists across portions of the South Plains...rolling plains and southern Texas Panhandle. Visibilities below 6 miles are possible. Make sure to slow down and use low-beam headlights when encountering any fog.

×

10-Day Weather Forecast

Almanac

Astronomy

Aug. 29, 2014 Rise Set
Actual Time 7:19 AM CDT 8:16 PM CDT
Civil Twilight 6:53 AM CDT 8:42 PM CDT
Nautical Twilight 6:23 AM CDT 9:12 PM CDT
Astronomical Twilight 5:52 AM CDT 9:43 PM CDT
Moon 10:57 AM CDT 10:29 PM CDT
Length of Visible Light 13h 48m
Length of Day
12h 57m
Tomorrow will be 1m 58s shorter.
Waxing Crescent, 15% of the Moon is Illuminated
Today
Waxing Crescent
Sep 2
First Quarter
Sep 8
Full
Sep 15
Last Quarter
Sep 24
New

Today's Extremes

State Highs State Lows

Community

WunderPhotos

Upload Photos

1,748,268 photos uploaded!

Nearby

Air Quality

  Air Quality AQ Index Pollutant
Friday Good
PM10
Friday Good
OZONE
Saturday Good
PM10
Saturday Good
OZONE
Sunday Good
PM10
Sunday Good
OZONE
Monday Good
PM10
Monday Good
OZONE
Tuesday Good
PM10
Tuesday Good
OZONE

Snow Depth

Station Depth Elevation
No new snow has been reported.

Earthquake Activity

City Distance Mag. Time & Date
No recent earthquake activity has been reported nearby.
Minimum magnitude displayed is 2.5.

Coastal Water Temperatures

Place Temperature
No Stations Reporting

Nearby Weather Stations